createdAt,value
2023-02-23T00:00:01.334Z,51.36
2023-02-23T00:03:04.490Z,51.83
2023-02-23T00:06:08.419Z,51.99
2023-02-23T00:09:22.780Z,52.33
2023-02-23T00:12:27.050Z,51.41
2023-02-23T00:15:29.953Z,51.82
2023-02-23T00:18:41.215Z,51.41
2023-02-23T00:21:43.626Z,52.38
2023-02-23T00:24:47.859Z,52.11
2023-02-23T00:27:51.898Z,51.42
2023-02-23T00:30:54.335Z,51.75
2023-02-23T00:33:59.433Z,51.68
2023-02-23T00:37:01.711Z,52.71
2023-02-23T00:40:13.242Z,52.34
2023-02-23T00:43:19.944Z,51.62
2023-02-23T00:46:27.070Z,51.91
2023-02-23T00:49:29.487Z,52.19
2023-02-23T00:52:32.043Z,52.33
2023-02-23T00:55:41.623Z,52.31
2023-02-23T00:58:45.587Z,51.78
2023-02-23T01:01:48.248Z,51.88
2023-02-23T01:04:50.951Z,52.77
2023-02-23T01:07:53.244Z,51.73
2023-02-23T01:10:55.643Z,52.42
2023-02-23T01:14:00.200Z,51.85
2023-02-23T01:17:02.496Z,52.17
2023-02-23T01:20:15.890Z,52.08
2023-02-23T01:23:21.192Z,51.84
2023-02-23T01:26:29.168Z,52.00
2023-02-23T01:29:31.676Z,51.84
2023-02-23T01:32:36.626Z,52.17
2023-02-23T01:35:39.084Z,51.28
2023-02-23T01:38:41.554Z,51.31
2023-02-23T01:41:44.386Z,51.66
2023-02-23T01:44:48.375Z,51.82
2023-02-23T01:47:57.416Z,51.52
2023-02-23T01:51:01.166Z,51.57
2023-02-23T01:54:08.639Z,51.25
2023-02-23T01:57:12.507Z,51.67
2023-02-23T02:00:15.363Z,51.29
2023-02-23T02:03:43.028Z,51.11
2023-02-23T02:06:48.939Z,51.09
2023-02-23T02:10:11.566Z,51.37
2023-02-23T02:13:18.993Z,51.72
2023-02-23T02:17:02.364Z,52.08
2023-02-23T02:20:30.822Z,51.57
2023-02-23T02:23:38.111Z,52.66
2023-02-23T02:27:21.687Z,51.58
2023-02-23T02:31:06.329Z,51.31
2023-02-23T02:34:54.649Z,51.41
2023-02-23T02:38:22.777Z,51.14
2023-02-23T02:41:42.491Z,51.22
2023-02-23T02:44:55.272Z,51.62
2023-02-23T02:48:21.644Z,51.97
2023-02-23T02:51:44.147Z,51.81
2023-02-23T02:54:53.662Z,51.33
2023-02-23T02:57:58.370Z,51.57
2023-02-23T03:01:26.205Z,51.46
2023-02-23T03:04:47.467Z,51.55
2023-02-23T03:08:37.834Z,51.56
2023-02-23T03:12:05.467Z,51.43
2023-02-23T03:15:50.003Z,51.94
2023-02-23T03:19:37.495Z,51.69
2023-02-23T03:23:21.115Z,52.16
2023-02-23T03:26:45.086Z,52.10
2023-02-23T03:30:13.647Z,51.87
2023-02-23T03:33:41.598Z,51.50
2023-02-23T03:37:06.882Z,51.37
2023-02-23T03:40:47.117Z,52.16
2023-02-23T03:44:20.075Z,51.90
2023-02-23T03:47:43.951Z,51.52
2023-02-23T03:51:09.998Z,52.23
2023-02-23T03:54:41.586Z,51.99
2023-02-23T03:58:06.966Z,51.95
2023-02-23T04:01:29.356Z,52.21
2023-02-23T04:04:50.228Z,52.21
2023-02-23T04:08:12.587Z,51.96
2023-02-23T04:11:55.536Z,51.81
2023-02-23T04:15:05.061Z,52.00
2023-02-23T04:18:08.566Z,52.16
2023-02-23T04:21:10.946Z,52.51
2023-02-23T04:24:13.348Z,53.17
2023-02-23T04:27:15.674Z,52.27
2023-02-23T04:30:18.733Z,53.43
2023-02-23T04:33:22.277Z,52.26
2023-02-23T04:36:25.277Z,52.53
2023-02-23T04:39:28.480Z,52.28
2023-02-23T04:42:31.170Z,52.77
2023-02-23T04:45:33.614Z,52.48
2023-02-23T04:48:36.092Z,51.72
2023-02-23T04:51:38.410Z,51.79
2023-02-23T04:54:41.868Z,51.95
2023-02-23T04:57:44.569Z,51.95
2023-02-23T05:00:46.838Z,52.29
2023-02-23T05:03:49.954Z,52.16
2023-02-23T05:06:52.351Z,51.56
2023-02-23T05:09:54.826Z,52.00
2023-02-23T05:12:58.327Z,53.55
2023-02-23T05:16:01.305Z,51.25
2023-02-23T05:19:03.573Z,50.70
2023-02-23T05:22:06.038Z,51.88
2023-02-23T05:25:10.328Z,51.86
2023-02-23T05:28:12.687Z,51.58
2023-02-23T05:31:15.178Z,52.69
2023-02-23T05:34:17.648Z,50.13
2023-02-23T05:37:20.430Z,50.42
2023-02-23T05:40:22.755Z,50.21
2023-02-23T05:43:25.085Z,49.43
2023-02-23T05:46:27.846Z,50.40
2023-02-23T05:59:44.245Z,50.71
2023-02-23T06:02:46.718Z,50.90
2023-02-23T06:06:02.145Z,50.22
2023-02-23T06:09:07.367Z,50.30
2023-02-23T06:12:09.676Z,51.80
2023-02-23T06:15:15.027Z,50.90
2023-02-23T06:18:34.201Z,50.49
2023-02-23T06:21:37.682Z,50.04
2023-02-23T06:30:36.241Z,49.01
2023-02-23T06:33:42.716Z,49.99
2023-02-23T06:36:47.772Z,49.46
2023-02-23T06:39:50.597Z,49.08
2023-02-23T06:42:52.988Z,48.64
2023-02-23T06:45:56.992Z,49.68
2023-02-23T06:48:59.949Z,48.19
2023-02-23T06:52:02.274Z,49.36
2023-02-23T06:55:05.557Z,49.39
2023-02-23T06:58:08.504Z,48.33
2023-02-23T07:01:12.869Z,48.62
2023-02-23T07:04:16.838Z,47.64
2023-02-23T07:07:25.914Z,48.51
2023-02-23T07:10:47.364Z,48.96
2023-02-23T07:13:49.674Z,49.01
2023-02-23T07:16:52.076Z,49.11
2023-02-23T07:19:55.752Z,47.55
2023-02-23T07:22:58.353Z,49.28
2023-02-23T07:26:01.101Z,47.67
2023-02-23T07:29:03.684Z,46.92
2023-02-23T07:32:06.153Z,47.60
2023-02-23T07:35:09.057Z,47.03
2023-02-23T07:38:11.484Z,48.54
2023-02-23T07:41:14.154Z,47.44
2023-02-23T07:44:16.470Z,47.00
2023-02-23T07:47:18.787Z,47.77
2023-02-23T07:51:03.433Z,47.22
2023-02-23T08:04:17.160Z,47.61
2023-02-23T08:07:19.618Z,46.03
2023-02-23T08:10:22.568Z,46.04
2023-02-23T08:13:24.833Z,46.36
2023-02-23T08:16:31.706Z,45.67
2023-02-23T08:19:34.323Z,44.65
2023-02-23T08:22:48.353Z,45.48
2023-02-23T08:25:51.499Z,45.36
2023-02-23T08:28:54.499Z,45.55
2023-02-23T08:31:57.385Z,46.39
2023-02-23T08:35:01.229Z,46.00
2023-02-23T08:38:03.630Z,45.55
2023-02-23T08:41:09.612Z,44.17
2023-02-23T08:44:11.986Z,44.51
2023-02-23T08:47:17.063Z,45.07
2023-02-23T08:50:20.945Z,45.19
2023-02-23T08:53:26.685Z,45.84
2023-02-23T08:56:29.129Z,44.85
2023-02-23T08:59:32.095Z,44.85
2023-02-23T09:02:35.695Z,45.18
2023-02-23T09:05:38.889Z,45.28
2023-02-23T09:08:41.797Z,44.20
2023-02-23T09:11:44.148Z,44.33
2023-02-23T09:14:47.403Z,44.83
2023-02-23T09:17:50.683Z,44.03
2023-02-23T09:20:52.983Z,43.66
2023-02-23T09:23:56.333Z,43.64
2023-02-23T09:26:58.652Z,44.32
2023-02-23T09:30:01.101Z,44.09
2023-02-23T09:33:03.590Z,44.98
2023-02-23T09:36:17.487Z,43.33
2023-02-23T09:39:37.632Z,45.58
2023-02-23T09:42:49.930Z,42.70
2023-02-23T09:46:01.550Z,42.48
2023-02-23T09:55:08.959Z,44.72
2023-02-23T09:58:30.511Z,42.27
2023-02-23T10:01:55.535Z,43.44
2023-02-23T10:05:08.946Z,42.66
2023-02-23T10:08:35.479Z,42.76
2023-02-23T10:11:42.094Z,42.71
2023-02-23T10:15:21.526Z,43.24
2023-02-23T10:18:49.002Z,43.37
2023-02-23T10:21:56.591Z,43.67
2023-02-23T10:25:31.007Z,43.43
2023-02-23T10:28:36.156Z,42.83
2023-02-23T10:31:44.194Z,43.12
2023-02-23T10:34:49.041Z,43.99
2023-02-23T10:37:52.631Z,43.91
2023-02-23T10:40:56.206Z,44.04
2023-02-23T10:44:07.896Z,43.07
2023-02-23T10:47:34.130Z,42.90
2023-02-23T10:50:39.906Z,42.75
2023-02-23T10:53:43.514Z,42.23
2023-02-23T10:56:46.776Z,42.97
2023-02-23T11:00:02.265Z,42.42
2023-02-23T11:03:19.146Z,42.27
2023-02-23T11:06:36.041Z,41.62
2023-02-23T11:09:47.097Z,43.17
2023-02-23T11:12:50.860Z,41.30
2023-02-23T11:16:20.964Z,42.05
2023-02-23T11:19:38.793Z,41.97
2023-02-23T11:22:41.816Z,41.31
2023-02-23T11:25:45.257Z,40.98
2023-02-23T11:28:48.035Z,42.47
2023-02-23T11:31:53.036Z,41.93
2023-02-23T11:35:16.600Z,42.54
2023-02-23T11:38:21.860Z,42.32
2023-02-23T11:41:24.900Z,42.63
2023-02-23T11:44:28.179Z,42.64
2023-02-23T11:47:32.268Z,42.82
2023-02-23T11:50:36.487Z,42.32
2023-02-23T11:53:40.943Z,41.98
2023-02-23T11:56:52.425Z,42.51
2023-02-23T11:59:57.098Z,43.34
2023-02-23T12:03:00.897Z,42.78
2023-02-23T12:06:03.377Z,42.18
2023-02-23T12:09:25.186Z,43.76
2023-02-23T12:12:28.842Z,43.36
2023-02-23T12:15:51.080Z,43.52
2023-02-23T12:19:12.042Z,43.79
2023-02-23T12:22:16.310Z,43.58
2023-02-23T12:25:43.094Z,42.66
2023-02-23T12:28:58.718Z,42.35
2023-02-23T12:32:05.769Z,43.29
2023-02-23T12:35:22.776Z,42.87
2023-02-23T12:38:52.233Z,43.93
2023-02-23T12:42:14.684Z,42.96
2023-02-23T12:45:22.284Z,43.65
2023-02-23T12:48:58.818Z,43.37
2023-02-23T12:52:17.993Z,42.23
2023-02-23T12:55:50.511Z,42.11
2023-02-23T12:59:05.341Z,41.81
2023-02-23T13:02:16.608Z,43.02
2023-02-23T13:06:01.754Z,42.22
2023-02-23T13:09:15.519Z,42.98
2023-02-23T13:12:20.832Z,42.20
2023-02-23T13:15:31.467Z,42.50
2023-02-23T13:18:46.622Z,42.11
2023-02-23T13:21:59.177Z,42.62
2023-02-23T13:25:05.118Z,42.85
2023-02-23T13:28:16.434Z,42.38
2023-02-23T13:31:37.745Z,43.04
2023-02-23T13:34:44.871Z,43.43
2023-02-23T13:38:04.284Z,42.50
2023-02-23T13:41:17.802Z,42.96
2023-02-23T13:44:31.606Z,43.18
2023-02-23T13:47:47.578Z,43.28
2023-02-23T13:51:06.189Z,43.00
2023-02-23T13:54:13.493Z,42.86
2023-02-23T13:57:19.881Z,43.45
2023-02-23T14:00:23.335Z,44.19
2023-02-23T14:03:29.720Z,43.65
2023-02-23T14:06:34.565Z,44.19
2023-02-23T14:09:40.905Z,43.74
2023-02-23T14:13:06.520Z,44.15
2023-02-23T14:16:20.029Z,44.79
2023-02-23T14:19:37.021Z,44.52
2023-02-23T14:23:11.796Z,45.11
2023-02-23T14:26:29.461Z,46.05
2023-02-23T14:29:40.204Z,45.11
2023-02-23T14:32:45.053Z,44.86
2023-02-23T14:35:49.898Z,45.18
2023-02-23T14:38:56.058Z,45.36
2023-02-23T14:41:59.999Z,44.39
2023-02-23T14:45:30.889Z,45.03
2023-02-23T14:48:36.749Z,44.30
2023-02-23T14:51:47.182Z,44.27
2023-02-23T14:55:12.866Z,44.10
2023-02-23T14:58:43.211Z,44.74
2023-02-23T15:01:45.547Z,44.49
2023-02-23T15:04:48.118Z,44.00
2023-02-23T15:07:51.984Z,44.25
2023-02-23T15:11:14.855Z,44.66
2023-02-23T15:14:27.319Z,43.79
2023-02-23T15:17:33.225Z,44.85
2023-02-23T15:23:40.400Z,43.64
2023-02-23T15:26:43.875Z,44.24
2023-02-23T15:29:46.370Z,44.19
2023-02-23T15:32:49.673Z,45.10
2023-02-23T15:35:56.336Z,46.24
2023-02-23T15:38:59.803Z,45.41
2023-02-23T15:42:02.858Z,45.15
2023-02-23T15:45:16.548Z,46.27
2023-02-23T15:48:22.900Z,46.31
2023-02-23T15:51:39.858Z,45.70
2023-02-23T15:54:56.978Z,46.18
2023-02-23T15:58:22.526Z,46.61
2023-02-23T16:01:27.326Z,46.84
2023-02-23T16:04:33.811Z,46.55
2023-02-23T16:07:43.436Z,46.17
2023-02-23T16:10:47.282Z,46.59
2023-02-23T16:13:51.361Z,46.70
2023-02-23T16:17:10.084Z,46.55
2023-02-23T16:20:14.068Z,47.29
2023-02-23T16:23:34.447Z,47.53
2023-02-23T16:26:53.783Z,46.01
2023-02-23T16:30:17.093Z,46.38
2023-02-23T16:33:25.095Z,47.48
2023-02-23T16:36:39.825Z,47.03
2023-02-23T16:39:42.195Z,47.69
2023-02-23T16:42:44.546Z,48.79
2023-02-23T16:45:48.274Z,49.95
2023-02-23T16:48:50.709Z,48.91
2023-02-23T16:51:53.095Z,48.46
2023-02-23T16:54:56.163Z,48.46
2023-02-23T16:58:01.032Z,49.09
2023-02-23T17:01:03.505Z,48.42
2023-02-23T17:04:15.563Z,48.20
2023-02-23T17:07:20.292Z,49.74
2023-02-23T17:10:29.206Z,49.64
2023-02-23T17:13:33.435Z,50.32
2023-02-23T17:16:35.788Z,49.51
2023-02-23T17:19:38.094Z,50.45
2023-02-23T17:22:40.494Z,50.99
2023-02-23T17:25:42.807Z,50.41
2023-02-23T17:28:45.309Z,48.33
2023-02-23T17:31:47.765Z,48.90
2023-02-23T17:34:52.321Z,49.66
2023-02-23T17:37:55.039Z,52.29
2023-02-23T17:40:58.058Z,50.98
2023-02-23T17:44:02.767Z,50.75
2023-02-23T17:47:05.039Z,51.02
2023-02-23T17:50:07.971Z,49.92
2023-02-23T17:53:10.472Z,49.34
2023-02-23T17:56:13.200Z,50.77
2023-02-23T17:59:15.611Z,50.75
2023-02-23T18:02:20.900Z,50.67
2023-02-23T18:05:23.308Z,50.37
2023-02-23T18:08:25.664Z,50.18
2023-02-23T18:11:28.102Z,50.12
2023-02-23T18:14:31.088Z,49.85
2023-02-23T18:17:33.826Z,50.84
2023-02-23T18:20:36.141Z,50.97
2023-02-23T18:23:38.508Z,50.52
2023-02-23T18:26:41.293Z,50.84
2023-02-23T18:29:43.690Z,51.63
2023-02-23T18:32:46.188Z,51.77
2023-02-23T18:35:48.529Z,50.55
2023-02-23T18:38:51.163Z,51.18
2023-02-23T18:41:53.521Z,51.15
2023-02-23T18:44:55.897Z,51.48
2023-02-23T18:48:00.910Z,50.32
2023-02-23T18:51:05.929Z,49.58
2023-02-23T18:54:13.135Z,49.99
2023-02-23T18:57:16.158Z,49.68
2023-02-23T19:00:18.993Z,49.40
2023-02-23T19:03:21.444Z,49.70
2023-02-23T19:06:25.481Z,49.86
2023-02-23T19:09:28.213Z,49.32
2023-02-23T19:12:31.161Z,49.38
2023-02-23T19:15:34.123Z,49.78
2023-02-23T19:18:36.729Z,50.40
2023-02-23T19:21:39.437Z,50.88
2023-02-23T19:24:41.894Z,52.00
2023-02-23T19:27:44.348Z,51.31
2023-02-23T19:30:49.489Z,51.06
2023-02-23T19:33:56.903Z,50.66
2023-02-23T19:36:59.175Z,50.63
2023-02-23T19:40:03.604Z,50.88
2023-02-23T19:43:06.105Z,50.54
2023-02-23T19:46:11.886Z,51.00
2023-02-23T19:49:16.060Z,52.15
2023-02-23T19:52:18.394Z,51.42
2023-02-23T19:55:22.023Z,50.74
2023-02-23T19:58:27.159Z,50.57
2023-02-23T20:01:30.045Z,50.77
2023-02-23T20:04:32.511Z,51.30
2023-02-23T20:07:34.808Z,51.02
2023-02-23T20:10:42.628Z,51.62
2023-02-23T20:13:44.919Z,51.15
2023-02-23T20:16:48.706Z,51.49
2023-02-23T20:19:51.105Z,50.51
2023-02-23T20:22:53.751Z,51.23
2023-02-23T20:25:56.096Z,50.73
2023-02-23T20:28:58.777Z,51.83
2023-02-23T20:32:02.333Z,51.83
2023-02-23T20:35:06.741Z,52.10
2023-02-23T20:38:09.838Z,51.79
2023-02-23T20:41:12.276Z,51.49
2023-02-23T20:44:17.825Z,51.95
2023-02-23T20:47:20.197Z,51.67
2023-02-23T20:50:25.739Z,51.63
2023-02-23T20:53:29.414Z,51.92
2023-02-23T20:56:32.268Z,52.37
2023-02-23T20:59:38.414Z,52.48
2023-02-23T21:02:43.503Z,52.28
2023-02-23T21:05:45.980Z,52.03
2023-02-23T21:08:49.071Z,51.63
2023-02-23T21:11:51.427Z,52.02
2023-02-23T21:14:54.008Z,52.18
2023-02-23T21:17:57.533Z,51.65
2023-02-23T21:21:06.578Z,51.61
2023-02-23T21:24:09.799Z,52.49
2023-02-23T21:27:13.200Z,52.45
2023-02-23T21:30:19.663Z,51.96
2023-02-23T21:33:22.031Z,52.00
2023-02-23T21:36:24.426Z,51.72
2023-02-23T21:39:28.203Z,51.43
2023-02-23T21:42:30.912Z,52.03
2023-02-23T21:45:33.262Z,51.64
2023-02-23T21:48:35.653Z,51.33
2023-02-23T21:51:38.678Z,51.46
2023-02-23T21:54:41.554Z,52.28
2023-02-23T21:57:44.760Z,52.23
2023-02-23T22:00:48.267Z,52.62
2023-02-23T22:03:51.640Z,52.79
2023-02-23T22:06:54.055Z,52.10
2023-02-23T22:09:56.463Z,53.23
2023-02-23T22:13:00.143Z,52.42
2023-02-23T22:16:03.305Z,52.27
2023-02-23T22:19:06.746Z,52.61
2023-02-23T22:22:09.121Z,52.91
2023-02-23T22:25:11.920Z,52.54
2023-02-23T22:28:14.269Z,53.61
2023-02-23T22:31:16.654Z,53.17
2023-02-23T22:34:19.164Z,52.95
2023-02-23T22:37:22.034Z,52.37
2023-02-23T22:40:24.370Z,52.90
2023-02-23T22:43:27.282Z,52.60
2023-02-23T22:46:29.577Z,53.27
2023-02-23T22:49:32.131Z,52.84
2023-02-23T22:52:34.840Z,53.23
2023-02-23T22:55:37.257Z,53.51
2023-02-23T22:58:42.192Z,53.56
2023-02-23T23:01:44.784Z,53.36
2023-02-23T23:04:47.599Z,53.29
2023-02-23T23:07:50.037Z,53.39
2023-02-23T23:10:52.316Z,53.95
2023-02-23T23:14:02.922Z,53.75
2023-02-23T23:17:05.371Z,54.14
2023-02-23T23:20:12.148Z,54.90
2023-02-23T23:23:15.231Z,56.70
2023-02-23T23:26:20.612Z,57.52
2023-02-23T23:29:23.744Z,55.97
2023-02-23T23:32:27.816Z,55.82
2023-02-23T23:35:30.358Z,56.17
2023-02-23T23:38:33.622Z,56.09
2023-02-23T23:41:35.938Z,55.97
2023-02-23T23:44:38.405Z,56.80
2023-02-23T23:47:40.711Z,57.28
2023-02-23T23:50:43.105Z,55.60
2023-02-23T23:53:45.562Z,56.35
2023-02-23T23:56:48.055Z,55.94
2023-02-23T23:59:51.417Z,55.15
